createdAt,value
2019-03-08T00:00:02.309Z,9.17
2019-03-08T00:02:29.050Z,9.13
2019-03-08T00:04:55.778Z,9.08
2019-03-08T00:07:22.521Z,9.04
2019-03-08T00:09:49.226Z,9.03
2019-03-08T00:12:15.977Z,9.05
2019-03-08T00:14:42.694Z,9.06
2019-03-08T00:17:09.432Z,9.11
2019-03-08T00:19:36.141Z,9.10
2019-03-08T00:22:02.962Z,9.08
2019-03-08T00:24:29.677Z,9.12
2019-03-08T00:26:56.413Z,9.13
2019-03-08T00:29:23.147Z,9.15
2019-03-08T00:31:49.891Z,9.17
2019-03-08T00:34:16.605Z,9.25
2019-03-08T00:36:43.337Z,9.28
2019-03-08T00:39:10.067Z,9.13
2019-03-08T00:41:36.806Z,9.13
2019-03-08T00:44:03.526Z,9.16
2019-03-08T00:46:30.282Z,9.14
2019-03-08T00:48:57.029Z,9.07
2019-03-08T00:51:23.744Z,9.02
2019-03-08T00:53:50.458Z,9.01
2019-03-08T00:56:17.193Z,8.95
2019-03-08T00:58:43.910Z,8.92
2019-03-08T01:01:10.654Z,8.95
2019-03-08T01:03:37.382Z,8.99
2019-03-08T01:06:04.126Z,8.92
2019-03-08T01:08:30.846Z,8.86
2019-03-08T01:10:57.609Z,8.84
2019-03-08T01:13:24.347Z,8.83
2019-03-08T01:15:51.086Z,8.95
2019-03-08T01:18:17.921Z,8.89
2019-03-08T01:20:44.605Z,8.84
2019-03-08T01:23:11.357Z,8.67
2019-03-08T01:25:38.081Z,8.43
2019-03-08T01:28:07.813Z,8.08
2019-03-08T01:30:34.856Z,7.89
2019-03-08T01:33:01.587Z,7.80
2019-03-08T01:35:28.318Z,7.77
2019-03-08T01:37:55.042Z,7.70
2019-03-08T01:40:21.761Z,7.62
2019-03-08T01:42:48.501Z,7.61
2019-03-08T01:45:15.229Z,7.59
2019-03-08T01:47:42.162Z,7.52
2019-03-08T01:50:08.993Z,7.53
2019-03-08T01:52:35.742Z,7.61
2019-03-08T01:55:02.541Z,7.61
2019-03-08T01:57:29.278Z,7.57
2019-03-08T01:59:55.999Z,7.60
2019-03-08T02:02:22.738Z,7.60
2019-03-08T02:04:49.529Z,7.63
2019-03-08T02:07:16.270Z,7.69
2019-03-08T02:09:42.993Z,7.76
2019-03-08T02:12:09.738Z,7.72
2019-03-08T02:14:36.453Z,7.74
2019-03-08T02:17:03.191Z,7.78
2019-03-08T02:19:29.917Z,7.70
2019-03-08T02:21:56.665Z,7.63
2019-03-08T02:24:23.391Z,7.62
2019-03-08T02:26:50.138Z,7.70
2019-03-08T02:29:16.857Z,7.66
2019-03-08T02:31:43.594Z,7.68
2019-03-08T02:34:10.310Z,7.63
2019-03-08T02:36:37.046Z,7.60
2019-03-08T02:39:03.828Z,7.61
2019-03-08T02:41:30.566Z,7.61
2019-03-08T02:43:57.290Z,7.60
2019-03-08T02:46:24.032Z,7.59
2019-03-08T02:48:50.742Z,7.58
2019-03-08T02:51:17.489Z,7.53
2019-03-08T02:53:44.214Z,7.48
2019-03-08T02:56:10.927Z,7.43
2019-03-08T02:58:37.677Z,7.45
2019-03-08T03:01:04.421Z,7.47
2019-03-08T03:03:31.150Z,7.40
2019-03-08T03:05:57.885Z,7.37
2019-03-08T03:08:24.614Z,7.33
2019-03-08T03:10:51.361Z,7.35
2019-03-08T03:13:18.109Z,7.35
2019-03-08T03:15:44.835Z,7.44
2019-03-08T03:18:12.575Z,7.47
2019-03-08T03:20:38.295Z,7.53
2019-03-08T03:23:05.041Z,7.55
2019-03-08T03:25:31.773Z,7.43
2019-03-08T03:27:58.513Z,7.48
2019-03-08T03:30:25.243Z,7.47
2019-03-08T03:32:51.995Z,7.46
2019-03-08T03:35:18.735Z,7.42
2019-03-08T03:37:45.510Z,7.48
2019-03-08T03:40:12.275Z,7.42
2019-03-08T03:42:39.005Z,7.46
2019-03-08T03:45:06.482Z,7.44
2019-03-08T03:47:33.220Z,7.43
2019-03-08T03:49:59.981Z,7.49
2019-03-08T03:52:26.702Z,7.52
2019-03-08T03:54:53.425Z,7.54
2019-03-08T03:57:20.157Z,7.52
2019-03-08T03:59:46.886Z,7.46
2019-03-08T04:02:13.618Z,7.48
2019-03-08T04:04:40.338Z,7.57
2019-03-08T04:07:07.081Z,7.53
2019-03-08T04:09:33.801Z,7.54
2019-03-08T04:12:00.543Z,7.51
2019-03-08T04:14:27.385Z,7.53
2019-03-08T04:16:54.135Z,7.50
2019-03-08T04:19:20.850Z,7.50
2019-03-08T04:21:47.585Z,7.51
2019-03-08T04:24:14.306Z,7.45
2019-03-08T04:26:41.033Z,7.48
2019-03-08T04:29:07.757Z,7.47
2019-03-08T04:31:34.494Z,7.42
2019-03-08T04:34:01.217Z,7.42
2019-03-08T04:36:27.960Z,7.53
2019-03-08T04:38:54.683Z,7.49
2019-03-08T04:41:21.430Z,7.44
2019-03-08T04:43:48.155Z,7.39
2019-03-08T04:46:14.882Z,7.44
2019-03-08T04:48:41.594Z,7.48
2019-03-08T04:51:08.353Z,7.47
2019-03-08T04:53:35.070Z,7.54
2019-03-08T04:56:01.815Z,7.45
2019-03-08T04:58:28.549Z,7.48
2019-03-08T05:00:55.283Z,7.57
2019-03-08T05:03:22.018Z,7.59
2019-03-08T05:05:48.740Z,7.69
2019-03-08T05:08:15.469Z,7.52
2019-03-08T05:10:42.181Z,7.42
2019-03-08T05:13:09.152Z,7.34
2019-03-08T05:15:35.869Z,7.37
2019-03-08T05:18:02.630Z,7.30
2019-03-08T05:20:29.346Z,7.29
2019-03-08T05:22:56.425Z,7.26
2019-03-08T05:25:23.157Z,7.21
2019-03-08T05:27:49.906Z,7.15
2019-03-08T05:30:16.625Z,7.11
2019-03-08T05:32:43.392Z,7.13
2019-03-08T05:35:10.125Z,7.17
2019-03-08T05:37:36.874Z,7.19
2019-03-08T05:40:04.086Z,7.14
2019-03-08T05:42:30.829Z,7.11
2019-03-08T05:44:57.554Z,7.03
2019-03-08T05:47:24.289Z,6.96
2019-03-08T05:49:51.062Z,6.97
2019-03-08T05:52:17.909Z,6.96
2019-03-08T05:54:44.770Z,6.97
2019-03-08T05:57:11.506Z,6.90
2019-03-08T05:59:38.227Z,6.94
2019-03-08T06:02:05.007Z,6.95
2019-03-08T06:04:31.810Z,6.99
2019-03-08T06:06:58.573Z,7.05
2019-03-08T06:09:25.304Z,7.03
2019-03-08T06:11:52.054Z,7.11
2019-03-08T06:14:18.780Z,7.06
2019-03-08T06:16:45.541Z,7.14
2019-03-08T06:19:12.272Z,7.13
2019-03-08T06:21:39.006Z,7.12
2019-03-08T06:24:05.738Z,7.14
2019-03-08T06:26:33.045Z,7.06
2019-03-08T06:28:59.778Z,7.14
2019-03-08T06:31:26.500Z,7.25
2019-03-08T06:33:53.237Z,7.36
2019-03-08T06:36:19.991Z,7.45
2019-03-08T06:38:46.738Z,7.42
2019-03-08T06:41:13.469Z,7.55
2019-03-08T06:43:40.214Z,7.75
2019-03-08T06:46:06.942Z,7.76
2019-03-08T06:48:33.696Z,7.56
2019-03-08T06:51:00.414Z,7.53
2019-03-08T06:53:27.158Z,7.63
2019-03-08T06:55:53.889Z,7.67
2019-03-08T06:58:26.450Z,7.74
2019-03-08T07:00:58.907Z,7.65
2019-03-08T07:03:25.816Z,7.78
2019-03-08T07:05:52.534Z,7.72
2019-03-08T07:08:19.274Z,7.60
2019-03-08T07:10:46.002Z,7.63
2019-03-08T07:13:12.746Z,7.63
2019-03-08T07:15:39.466Z,7.61
2019-03-08T07:18:12.508Z,7.61
2019-03-08T07:20:52.713Z,7.79
2019-03-08T07:23:41.074Z,7.68
2019-03-08T07:26:30.414Z,7.73
2019-03-08T07:29:07.874Z,7.71
2019-03-08T07:31:56.233Z,7.79
2019-03-08T07:34:43.590Z,7.77
2019-03-08T07:37:35.863Z,7.91
2019-03-08T07:40:23.197Z,7.98
2019-03-08T07:43:02.970Z,8.17
2019-03-08T07:45:44.772Z,8.26
2019-03-08T07:48:35.167Z,8.53
2019-03-08T07:51:11.998Z,8.42
2019-03-08T07:53:48.434Z,8.49
2019-03-08T07:56:23.566Z,8.41
2019-03-08T07:58:55.957Z,8.41
2019-03-08T08:01:27.994Z,8.42
2019-03-08T08:04:17.330Z,8.56
2019-03-08T08:07:03.670Z,8.68
2019-03-08T08:09:36.294Z,8.71
2019-03-08T08:12:16.144Z,8.92
2019-03-08T08:14:53.240Z,9.03
2019-03-08T08:17:31.017Z,9.28
2019-03-08T08:20:21.150Z,9.11
2019-03-08T08:22:55.210Z,9.12
2019-03-08T08:25:44.385Z,9.14
2019-03-08T08:28:19.733Z,9.06
2019-03-08T08:30:59.746Z,9.04
2019-03-08T08:33:35.626Z,9.23
2019-03-08T08:36:20.772Z,9.34
2019-03-08T08:38:57.602Z,9.44
2019-03-08T08:41:31.486Z,9.33
2019-03-08T08:44:17.858Z,9.16
2019-03-08T08:46:50.289Z,9.18
2019-03-08T08:49:24.858Z,9.12
2019-03-08T08:51:57.489Z,9.11
2019-03-08T08:54:35.486Z,9.25
2019-03-08T08:57:21.821Z,9.22
2019-03-08T08:59:53.544Z,9.37
2019-03-08T09:02:33.357Z,9.64
2019-03-08T09:05:05.752Z,9.83
2019-03-08T09:07:39.242Z,9.97
2019-03-08T09:10:19.331Z,9.86
2019-03-08T09:12:53.579Z,9.92
2019-03-08T09:15:25.397Z,10.12
2019-03-08T09:18:11.737Z,10.28
2019-03-08T09:20:59.962Z,10.12
2019-03-08T09:23:37.921Z,9.66
2019-03-08T09:26:28.121Z,9.46
2019-03-08T09:29:08.381Z,9.50
2019-03-08T09:31:55.700Z,9.53
2019-03-08T09:34:43.086Z,9.51
2019-03-08T09:37:21.731Z,9.50
2019-03-08T09:39:57.706Z,9.66
2019-03-08T09:42:45.920Z,9.81
2019-03-08T09:45:18.413Z,10.06
2019-03-08T09:48:07.718Z,10.04
2019-03-08T09:50:41.602Z,10.18
2019-03-08T09:53:23.207Z,10.10
2019-03-08T09:55:54.853Z,9.94
2019-03-08T09:58:39.185Z,9.78
2019-03-08T10:01:25.942Z,9.63
2019-03-08T10:03:58.384Z,9.70
2019-03-08T10:06:33.973Z,9.71
2019-03-08T10:09:26.342Z,9.79
2019-03-08T10:12:00.905Z,9.72
2019-03-08T10:14:51.570Z,9.68
2019-03-08T10:17:25.917Z,9.58
2019-03-08T10:20:01.461Z,9.63
2019-03-08T10:22:37.390Z,9.65
2019-03-08T10:25:15.310Z,9.57
2019-03-08T10:27:55.957Z,9.53
2019-03-08T10:30:32.005Z,9.51
2019-03-08T10:33:07.866Z,9.63
2019-03-08T10:35:46.613Z,9.60
2019-03-08T10:38:22.687Z,9.69
2019-03-08T10:40:53.806Z,9.65
2019-03-08T10:43:31.291Z,9.46
2019-03-08T10:46:17.650Z,9.39
2019-03-08T10:49:09.938Z,9.34
2019-03-08T10:51:42.356Z,9.44
2019-03-08T10:54:16.711Z,9.53
2019-03-08T10:56:49.286Z,9.86
2019-03-08T10:59:25.603Z,9.97
2019-03-08T11:02:14.815Z,10.05
2019-03-08T11:04:58.095Z,10.05
2019-03-08T11:07:40.001Z,10.15
2019-03-08T11:10:17.959Z,10.31
2019-03-08T11:12:54.310Z,10.44
2019-03-08T11:15:26.794Z,10.08
2019-03-08T11:18:01.649Z,10.20
2019-03-08T11:20:48.799Z,10.12
2019-03-08T11:23:21.274Z,9.93
2019-03-08T11:26:08.842Z,10.03
2019-03-08T11:28:44.001Z,9.93
2019-03-08T11:31:27.805Z,9.88
2019-03-08T11:34:04.772Z,9.89
2019-03-08T11:36:37.789Z,9.81
2019-03-08T11:39:23.797Z,9.84
2019-03-08T11:42:16.074Z,9.81
2019-03-08T11:44:54.456Z,8.84
2019-03-08T11:47:42.927Z,8.09
2019-03-08T11:50:29.310Z,7.47
2019-03-08T11:53:17.646Z,7.59
2019-03-08T11:55:54.298Z,7.93
2019-03-08T11:58:26.741Z,8.19
2019-03-08T12:01:14.925Z,8.09
2019-03-08T12:03:55.010Z,8.41
2019-03-08T12:06:29.542Z,8.62
2019-03-08T12:09:16.701Z,8.67
2019-03-08T12:11:54.201Z,8.56
2019-03-08T12:14:30.482Z,8.63
2019-03-08T12:17:07.323Z,8.58
2019-03-08T12:19:40.177Z,8.72
2019-03-08T12:22:15.762Z,8.92
2019-03-08T12:25:02.254Z,9.16
2019-03-08T12:27:34.544Z,9.44
2019-03-08T12:30:07.030Z,8.93
2019-03-08T12:32:50.096Z,8.84
2019-03-08T12:35:20.447Z,9.32
2019-03-08T12:38:01.514Z,9.34
2019-03-08T12:40:34.722Z,9.37
2019-03-08T12:43:08.263Z,9.66
2019-03-08T12:45:39.709Z,9.84
2019-03-08T12:48:13.439Z,10.26
2019-03-08T12:51:00.680Z,10.38
2019-03-08T12:53:34.261Z,10.39
2019-03-08T12:56:08.993Z,10.43
2019-03-08T12:58:41.485Z,10.48
2019-03-08T13:01:14.719Z,10.66
2019-03-08T13:03:54.670Z,10.25
2019-03-08T13:06:28.758Z,10.52
2019-03-08T13:09:02.689Z,10.39
2019-03-08T13:11:33.151Z,10.12
2019-03-08T13:13:56.160Z,10.38
2019-03-08T13:16:22.881Z,10.71
2019-03-08T13:18:49.622Z,10.89
2019-03-08T13:21:16.333Z,11.20
2019-03-08T13:23:43.166Z,11.09
2019-03-08T13:26:09.894Z,11.01
2019-03-08T13:28:36.637Z,10.88
2019-03-08T13:31:03.348Z,11.09
2019-03-08T13:33:30.081Z,11.38
2019-03-08T13:35:56.888Z,11.13
2019-03-08T13:38:23.579Z,11.27
2019-03-08T13:40:50.305Z,11.43
2019-03-08T13:43:17.026Z,11.63
2019-03-08T13:45:43.752Z,11.38
2019-03-08T13:48:10.490Z,11.25
2019-03-08T13:50:37.213Z,11.07
2019-03-08T13:53:04.054Z,10.92
2019-03-08T13:55:30.795Z,10.74
2019-03-08T13:57:57.547Z,10.53
2019-03-08T14:00:29.114Z,10.46
2019-03-08T14:02:55.886Z,10.53
2019-03-08T14:05:22.702Z,10.36
2019-03-08T14:07:49.454Z,10.42
2019-03-08T14:11:24.705Z,10.29
2019-03-08T14:13:51.743Z,10.49
2019-03-08T14:16:18.462Z,10.60
2019-03-08T14:18:45.200Z,10.88
2019-03-08T14:21:12.006Z,10.86
2019-03-08T14:23:38.734Z,10.97
2019-03-08T14:26:05.445Z,11.02
2019-03-08T14:28:32.187Z,10.97
2019-03-08T14:31:18.696Z,10.85
2019-03-08T14:33:45.439Z,11.03
2019-03-08T14:36:12.153Z,11.25
2019-03-08T14:38:38.975Z,11.03
2019-03-08T14:41:13.221Z,11.08
2019-03-08T14:43:49.012Z,11.26
2019-03-08T14:46:22.994Z,11.46
2019-03-08T14:48:49.725Z,11.45
2019-03-08T14:51:16.476Z,11.21
2019-03-08T14:53:43.242Z,11.17
2019-03-08T14:56:09.970Z,11.15
2019-03-08T14:58:40.219Z,10.94
2019-03-08T15:01:06.193Z,10.87
2019-03-08T15:03:30.302Z,11.06
2019-03-08T15:05:59.199Z,11.35
2019-03-08T15:08:23.765Z,11.43
2019-03-08T15:10:51.425Z,11.39
2019-03-08T15:13:20.125Z,11.17
2019-03-08T15:15:44.133Z,11.07
2019-03-08T15:18:10.848Z,11.42
2019-03-08T15:20:37.900Z,11.59
2019-03-08T15:23:04.376Z,11.33
2019-03-08T15:25:31.558Z,11.24
2019-03-08T15:27:58.030Z,11.48
2019-03-08T15:30:24.799Z,11.67
2019-03-08T15:32:51.798Z,11.77
2019-03-08T15:35:18.630Z,12.00
2019-03-08T15:37:45.349Z,11.70
2019-03-08T15:40:14.394Z,11.56
2019-03-08T15:42:41.146Z,12.20
2019-03-08T15:45:08.274Z,11.95
2019-03-08T15:47:36.228Z,11.72
2019-03-08T15:50:04.509Z,11.51
2019-03-08T15:52:28.535Z,11.70
2019-03-08T15:54:58.863Z,11.78
2019-03-08T15:57:25.632Z,11.86
2019-03-08T15:59:52.470Z,11.41
2019-03-08T16:02:19.211Z,11.42
2019-03-08T16:04:49.873Z,11.50
2019-03-08T16:07:12.666Z,11.41
2019-03-08T16:09:39.385Z,11.23
2019-03-08T16:12:06.126Z,11.35
2019-03-08T16:14:32.849Z,11.27
2019-03-08T16:16:59.590Z,11.44
2019-03-08T16:19:26.415Z,11.40
2019-03-08T16:21:53.159Z,11.43
2019-03-08T16:24:19.877Z,11.45
2019-03-08T16:26:46.601Z,11.47
2019-03-08T16:29:13.322Z,11.47
2019-03-08T16:31:50.958Z,11.28
2019-03-08T16:34:17.674Z,11.22
2019-03-08T16:36:56.693Z,11.18
2019-03-08T16:39:44.872Z,11.15
2019-03-08T16:42:18.168Z,11.11
2019-03-08T16:44:58.990Z,10.95
2019-03-08T16:47:35.567Z,10.85
2019-03-08T16:50:26.046Z,10.87
2019-03-08T16:52:57.445Z,10.83
2019-03-08T16:55:38.402Z,10.68
2019-03-08T16:58:20.111Z,10.51
2019-03-08T17:00:53.183Z,10.44
2019-03-08T17:03:24.938Z,10.43
2019-03-08T17:05:58.856Z,10.40
2019-03-08T17:08:43.814Z,10.41
2019-03-08T17:11:16.435Z,10.31
2019-03-08T17:13:50.815Z,10.40
2019-03-08T17:16:23.424Z,10.23
2019-03-08T17:18:59.870Z,10.07
2019-03-08T17:21:32.901Z,10.04
2019-03-08T17:24:13.836Z,9.91
2019-03-08T17:26:52.466Z,9.91
2019-03-08T17:29:24.860Z,9.88
2019-03-08T17:31:58.953Z,9.83
2019-03-08T17:34:34.674Z,9.85
2019-03-08T17:37:13.222Z,9.84
2019-03-08T17:39:52.426Z,9.71
2019-03-08T17:42:34.329Z,9.68
2019-03-08T17:45:23.693Z,9.64
2019-03-08T17:47:56.154Z,9.64
2019-03-08T17:50:31.030Z,9.57
2019-03-08T17:53:03.642Z,9.57
2019-03-08T17:55:36.257Z,9.59
2019-03-08T17:58:25.405Z,9.58
2019-03-08T18:01:02.398Z,9.51
2019-03-08T18:03:43.286Z,9.49
2019-03-08T18:06:15.842Z,9.47
2019-03-08T18:08:50.587Z,9.50
2019-03-08T18:11:38.089Z,9.49
2019-03-08T18:14:19.011Z,9.52
2019-03-08T18:16:58.833Z,9.58
2019-03-08T18:19:34.953Z,9.44
2019-03-08T18:22:21.325Z,9.56
2019-03-08T18:25:11.523Z,9.60
2019-03-08T18:27:48.264Z,9.55
2019-03-08T18:30:20.810Z,9.64
2019-03-08T18:32:58.482Z,9.57
2019-03-08T18:35:35.697Z,9.60
2019-03-08T18:38:23.025Z,9.42
2019-03-08T18:40:58.270Z,9.74
2019-03-08T18:43:47.526Z,9.52
2019-03-08T18:46:34.649Z,9.56
2019-03-08T18:49:09.129Z,9.77
2019-03-08T18:51:49.342Z,9.71
2019-03-08T18:54:21.997Z,9.57
2019-03-08T18:56:53.104Z,9.43
2019-03-08T18:59:27.102Z,9.78
2019-03-08T19:02:02.922Z,9.67
2019-03-08T19:04:35.373Z,9.47
2019-03-08T19:07:11.083Z,9.58
2019-03-08T19:09:43.633Z,9.41
2019-03-08T19:12:24.220Z,9.29
2019-03-08T19:15:01.206Z,9.22
2019-03-08T19:17:42.418Z,9.21
2019-03-08T19:20:20.545Z,9.07
2019-03-08T19:22:55.491Z,8.98
2019-03-08T19:25:31.422Z,9.11
2019-03-08T19:28:16.726Z,8.90
2019-03-08T19:30:54.726Z,8.90
2019-03-08T19:33:27.194Z,8.86
2019-03-08T19:35:59.147Z,8.84
2019-03-08T19:38:34.714Z,8.81
2019-03-08T19:41:17.605Z,8.81
2019-03-08T19:44:07.019Z,8.77
2019-03-08T19:46:54.709Z,8.86
2019-03-08T19:49:41.058Z,8.79
2019-03-08T19:52:13.530Z,8.86
2019-03-08T19:54:46.092Z,8.86
2019-03-08T19:57:25.738Z,8.86
2019-03-08T20:00:03.219Z,8.85
2019-03-08T20:02:49.569Z,8.81
2019-03-08T20:05:25.497Z,8.77
2019-03-08T20:08:01.068Z,8.97
2019-03-08T20:10:51.258Z,9.25
2019-03-08T20:13:30.286Z,9.39
2019-03-08T20:16:19.464Z,9.09
2019-03-08T20:18:54.636Z,8.97
2019-03-08T20:21:28.578Z,8.92
2019-03-08T20:24:02.370Z,8.92
2019-03-08T20:26:44.145Z,8.84
2019-03-08T20:29:22.406Z,8.73
2019-03-08T20:32:10.677Z,8.87
2019-03-08T20:35:01.900Z,8.99
2019-03-08T20:37:44.404Z,9.01
2019-03-08T20:40:18.538Z,9.07
2019-03-08T20:42:56.468Z,8.84
2019-03-08T20:45:28.970Z,8.89
2019-03-08T20:47:55.689Z,8.91
2019-03-08T20:50:22.446Z,8.97
2019-03-08T20:52:49.161Z,9.18
2019-03-08T20:55:15.905Z,8.99
2019-03-08T20:57:42.626Z,8.88
2019-03-08T21:00:10.182Z,8.95
2019-03-08T21:02:36.906Z,8.99
2019-03-08T21:05:04.381Z,8.92
2019-03-08T21:07:31.098Z,9.04
2019-03-08T21:09:57.841Z,9.12
2019-03-08T21:12:24.570Z,8.96
2019-03-08T21:14:51.350Z,9.11
2019-03-08T21:17:18.094Z,9.19
2019-03-08T21:19:44.822Z,9.09
2019-03-08T21:22:11.545Z,8.97
2019-03-08T21:24:38.287Z,8.96
2019-03-08T21:27:05.010Z,9.15
2019-03-08T21:29:31.757Z,8.99
2019-03-08T21:31:58.485Z,9.21
2019-03-08T21:34:25.268Z,9.03
2019-03-08T21:36:51.958Z,9.41
2019-03-08T21:39:18.770Z,9.21
2019-03-08T21:41:45.514Z,9.26
2019-03-08T21:44:12.234Z,9.17
2019-03-08T21:46:39.094Z,9.29
2019-03-08T21:49:05.826Z,9.09
2019-03-08T21:51:32.570Z,9.13
2019-03-08T21:53:59.295Z,9.04
2019-03-08T21:56:26.041Z,8.98
2019-03-08T21:58:52.765Z,9.04
2019-03-08T22:01:19.502Z,8.97
2019-03-08T22:03:51.126Z,9.00
2019-03-08T22:06:18.010Z,8.82
2019-03-08T22:08:55.867Z,8.87
2019-03-08T22:11:30.520Z,8.92
2019-03-08T22:13:57.238Z,8.86
2019-03-08T22:16:23.987Z,8.84
2019-03-08T22:18:50.695Z,8.93
2019-03-08T22:21:19.415Z,8.68
2019-03-08T22:23:44.286Z,8.64
2019-03-08T22:26:11.034Z,8.80
2019-03-08T22:28:37.753Z,9.13
2019-03-08T22:31:04.486Z,8.99
2019-03-08T22:33:31.230Z,8.72
2019-03-08T22:35:57.954Z,8.67
2019-03-08T22:38:24.657Z,8.63
2019-03-08T22:40:51.394Z,8.52
2019-03-08T22:43:18.114Z,8.50
2019-03-08T22:45:44.866Z,8.59
2019-03-08T22:48:11.570Z,8.67
2019-03-08T22:50:38.311Z,8.55
2019-03-08T22:53:05.030Z,8.57
2019-03-08T22:55:31.773Z,8.52
2019-03-08T22:57:58.509Z,8.55
2019-03-08T23:00:52.461Z,8.50
2019-03-08T23:03:19.199Z,8.57
2019-03-08T23:05:46.170Z,8.52
2019-03-08T23:08:12.913Z,8.45
2019-03-08T23:10:39.638Z,8.54
2019-03-08T23:13:06.353Z,8.51
2019-03-08T23:15:33.089Z,8.48
2019-03-08T23:17:59.806Z,8.42
2019-03-08T23:20:26.536Z,8.46
2019-03-08T23:22:53.271Z,8.48
2019-03-08T23:25:19.991Z,8.53
2019-03-08T23:27:51.318Z,8.47
2019-03-08T23:30:21.449Z,8.31
2019-03-08T23:32:51.030Z,8.20
2019-03-08T23:35:17.754Z,8.21
2019-03-08T23:37:44.490Z,8.20
2019-03-08T23:40:11.278Z,8.29
2019-03-08T23:42:38.021Z,8.32
2019-03-08T23:45:05.578Z,8.27
2019-03-08T23:47:32.321Z,8.43
2019-03-08T23:49:59.050Z,8.40
2019-03-08T23:52:25.793Z,8.52
2019-03-08T23:54:52.509Z,8.56
2019-03-08T23:57:19.293Z,8.51
2019-03-08T23:59:46.021Z,8.52
